Saturday, July 21, 2018, 8:42 PM EDT
Back to Local

KVSF, Hartness State Airport

Location: Perkinsville, VT, United States Lat: 43.35
Local Time: 8:42 PM EDT ( 0:42 GMT) Lon: -72.517
Time Zone: US/Eastern Elev: 577 ft

Show me the last for .
Show Decoded

2018-07-21 19:54 METAR KVSF 212354Z AUTO 13009KT 10SM CLR 23/14 A3011 RMK AO2 SLP195 T02280139
                 10272 20222 53009 =
2018-07-21 18:54 METAR KVSF 212254Z AUTO 13008KT 10SM CLR 24/12 A3009 RMK AO2 SLP189 T02440122 =
2018-07-21 17:54 METAR KVSF 212154Z AUTO 14010KT 10SM CLR 26/13 A3008 RMK AO2 SLP186 T02560133 =
2018-07-21 16:54 METAR KVSF 212054Z AUTO 15006KT 10SM CLR 26/13 A3008 RMK AO2 SLP185 T02610128
                 56013 =
2018-07-21 15:54 METAR KVSF 211954Z AUTO 17006KT 10SM CLR 27/12 A3009 RMK AO2 SLP189 T02670122 =
2018-07-21 14:54 METAR KVSF 211854Z AUTO 12008KT 10SM CLR 27/13 A3010 RMK AO2 SLP191 T02670133 =
2018-07-21 13:54 METAR KVSF 211754Z AUTO 17008KT 130V190 10SM FEW047 26/15 A3012 RMK AO2 SLP199
                 T02610150 10261 20161 58012 =
2018-07-21 12:54 METAR KVSF 211654Z AUTO 18008KT 10SM SCT044 26/15 A3014 RMK AO2 SLP203 T02560150
                 =
2018-07-21 11:54 METAR KVSF 211554Z AUTO VRB03KT 10SM SCT040 24/16 A3015 RMK AO2 SLP208 T02390156
                 =
2018-07-21 10:54 METAR KVSF 211454Z AUTO 19005KT 10SM BKN035 22/16 A3016 RMK AO2 SLP211 T02220156
                 58005 =
2018-07-21 09:54 METAR KVSF 211354Z AUTO VRB03KT 10SM CLR 21/16 A3016 RMK AO2 SLP213 T02110161 =
2018-07-21 08:54 METAR KVSF 211254Z AUTO 00000KT 10SM CLR 19/16 A3017 RMK AO2 SLP217 T01940161 =
2018-07-21 07:54 METAR KVSF 211154Z AUTO 00000KT 10SM CLR 16/14 A3017 RMK AO2 SLP216 T01610144
                 10161 20117 51001 =
2018-07-21 07:04 METAR KVSF 211104Z AUTO 00000KT 9SM FEW002 14/14 A3017 RMK AO2 T01390139 =
2018-07-21 06:54 METAR KVSF 211054Z AUTO 00000KT 2 1/2SM BR FEW002 13/13 A3017 RMK AO2 VIS 1V5
                 SLP215 T01330133 =
2018-07-21 06:51 METAR KVSF 211051Z AUTO 00000KT 2SM BR FEW002 13/13 A3017 RMK AO2 VIS 1V5 =
2018-07-21 06:42 METAR KVSF 211042Z AUTO 00000KT 1SM BR VV002 13/13 A3017 RMK AO2 T01280128 =
2018-07-21 06:09 METAR KVSF 211009Z AUTO 00000KT 10SM FEW002 12/12 A3018 RMK AO2 T01170117 =
2018-07-21 05:54 METAR KVSF 210954Z AUTO 00000KT 10SM BKN002 BKN040 12/12 A3018 RMK AO2 SLP217
                 T01170117 =
2018-07-21 05:43 METAR KVSF 210943Z AUTO 00000KT 3SM BR BKN002 OVC040 12/12 A3017 RMK AO2
                 T01220122 =
2018-07-21 05:27 METAR KVSF 210927Z AUTO 00000KT 3/4SM BR OVC002 12/12 A3017 RMK AO2 T01170117 =
2018-07-21 04:54 METAR KVSF 210854Z AUTO 00000KT 10SM BKN002 12/12 A3017 RMK AO2 SLP215 T01220122
                 53007 =
2018-07-21 04:07 METAR KVSF 210807Z AUTO 00000KT 10SM FEW003 13/13 A3015 RMK AO2 T01280128 =
2018-07-21 03:54 METAR KVSF 210754Z AUTO 00000KT 10SM CLR 13/13 A3015 RMK AO2 SLP210 T01280128 =
2018-07-21 02:54 METAR KVSF 210654Z AUTO 00000KT 10SM CLR 14/13 A3015 RMK AO2 SLP208 T01390133 =
2018-07-21 01:54 METAR KVSF 210554Z AUTO 00000KT 10SM CLR 14/14 A3015 RMK AO2 SLP208 T01440139
                 10256 20144 58001 =
2018-07-21 00:54 METAR KVSF 210454Z AUTO 00000KT 10SM CLR 15/14 A3015 RMK AO2 SLP209 T01500144
                 402890100 =
2018-07-20 23:54 METAR KVSF 210354Z AUTO 00000KT 10SM CLR 16/14 A3015 RMK AO2 SLP209 T01560144 =
2018-07-20 22:54 METAR KVSF 210254Z AUTO 00000KT 10SM CLR 17/15 A3015 RMK AO2 SLP209 T01720150
                 51012 =
2018-07-20 21:54 METAR KVSF 210154Z AUTO 30004KT 10SM CLR 18/16 A3015 RMK AO2 SLP207 T01830156 =
2018-07-20 20:54 METAR KVSF 210054Z AUTO 00000KT 10SM CLR 21/17 A3013 RMK AO2 SLP201 T02060167 =

Support USWX by starting your Amazon purchase here.